sensor_id;sensor_type;location;lat;lon;timestamp;pressure;altitude;pressure_sealevel;temperature;humidity
73941;BME280;62294;48.554;10.202;2022-11-06T00:00:22;96547.84;;;0.11;93.91
73941;BME280;62294;48.554;10.202;2022-11-06T00:02:49;96543.59;;;0.00;94.11
73941;BME280;62294;48.554;10.202;2022-11-06T00:05:15;96551.31;;;0.02;94.01
73941;BME280;62294;48.554;10.202;2022-11-06T00:08:00;96552.38;;;0.09;93.75
73941;BME280;62294;48.554;10.202;2022-11-06T00:10:29;96547.97;;;0.10;93.31
73941;BME280;62294;48.554;10.202;2022-11-06T00:12:58;96537.56;;;0.00;93.04
73941;BME280;62294;48.554;10.202;2022-11-06T00:15:25;96549.66;;;-0.09;92.96
73941;BME280;62294;48.554;10.202;2022-11-06T00:17:52;96540.63;;;-0.14;93.41
73941;BME280;62294;48.554;10.202;2022-11-06T00:20:18;96545.31;;;-0.27;93.36
73941;BME280;62294;48.554;10.202;2022-11-06T00:22:45;96541.59;;;-0.25;93.42
73941;BME280;62294;48.554;10.202;2022-11-06T00:25:11;96535.44;;;-0.33;93.42
73941;BME280;62294;48.554;10.202;2022-11-06T00:27:38;96535.56;;;-0.35;93.23
73941;BME280;62294;48.554;10.202;2022-11-06T00:30:08;96528.94;;;-0.29;92.94
73941;BME280;62294;48.554;10.202;2022-11-06T00:32:37;96538.72;;;-0.41;92.99
73941;BME280;62294;48.554;10.202;2022-11-06T00:35:04;96539.56;;;-0.50;92.90
73941;BME280;62294;48.554;10.202;2022-11-06T00:37:31;96540.41;;;-0.59;93.26
73941;BME280;62294;48.554;10.202;2022-11-06T00:39:58;96549.75;;;-0.47;93.16
73941;BME280;62294;48.554;10.202;2022-11-06T00:42:24;96540.13;;;-0.56;93.00
73941;BME280;62294;48.554;10.202;2022-11-06T00:44:51;96541.38;;;-0.60;93.80
73941;BME280;62294;48.554;10.202;2022-11-06T00:47:17;96537.78;;;-0.59;93.68
73941;BME280;62294;48.554;10.202;2022-11-06T00:49:44;96544.25;;;-0.53;93.42
73941;BME280;62294;48.554;10.202;2022-11-06T00:52:10;96538.78;;;-0.60;93.44
73941;BME280;62294;48.554;10.202;2022-11-06T00:54:37;96531.34;;;-0.64;93.55
73941;BME280;62294;48.554;10.202;2022-11-06T00:57:03;96534.09;;;-0.66;93.63
73941;BME280;62294;48.554;10.202;2022-11-06T00:59:30;96527.91;;;-0.65;94.01
73941;BME280;62294;48.554;10.202;2022-11-06T01:01:56;96524.47;;;-0.65;93.63
73941;BME280;62294;48.554;10.202;2022-11-06T01:04:24;96516.53;;;-0.64;93.91
73941;BME280;62294;48.554;10.202;2022-11-06T01:06:53;96515.13;;;-0.58;92.58
73941;BME280;62294;48.554;10.202;2022-11-06T01:09:23;96507.97;;;-0.56;93.30
73941;BME280;62294;48.554;10.202;2022-11-06T01:11:53;96503.31;;;-0.53;93.48
73941;BME280;62294;48.554;10.202;2022-11-06T01:14:41;96515.38;;;-0.52;93.19
73941;BME280;62294;48.554;10.202;2022-11-06T01:17:08;96508.81;;;-0.56;93.07
73941;BME280;62294;48.554;10.202;2022-11-06T01:19:35;96522.28;;;-0.60;92.97
73941;BME280;62294;48.554;10.202;2022-11-06T01:22:01;96513.91;;;-0.64;93.40
73941;BME280;62294;48.554;10.202;2022-11-06T01:24:28;96522.53;;;-0.63;93.92
73941;BME280;62294;48.554;10.202;2022-11-06T01:26:55;96512.78;;;-0.61;93.53
73941;BME280;62294;48.554;10.202;2022-11-06T01:29:42;96500.97;;;-0.56;92.84
73941;BME280;62294;48.554;10.202;2022-11-06T01:32:09;96509.75;;;-0.57;92.88
73941;BME280;62294;48.554;10.202;2022-11-06T01:34:36;96516.91;;;-0.59;92.90
73941;BME280;62294;48.554;10.202;2022-11-06T01:37:02;96516.91;;;-0.59;93.17
73941;BME280;62294;48.554;10.202;2022-11-06T01:39:29;96503.59;;;-0.56;93.50
73941;BME280;62294;48.554;10.202;2022-11-06T01:41:56;96509.63;;;-0.46;92.87
73941;BME280;62294;48.554;10.202;2022-11-06T01:47:03;96506.69;;;-0.33;92.41
73941;BME280;62294;48.554;10.202;2022-11-06T01:49:34;96508.31;;;-0.23;92.77
73941;BME280;62294;48.554;10.202;2022-11-06T01:52:07;96510.13;;;-0.23;92.22
73941;BME280;62294;48.554;10.202;2022-11-06T01:54:38;96497.44;;;-0.18;92.33
73941;BME280;62294;48.554;10.202;2022-11-06T01:57:05;96499.94;;;-0.17;92.02
73941;BME280;62294;48.554;10.202;2022-11-06T01:59:35;96501.69;;;-0.08;92.03
73941;BME280;62294;48.554;10.202;2022-11-06T02:02:03;96502.22;;;-0.04;91.91
73941;BME280;62294;48.554;10.202;2022-11-06T02:04:35;96499.06;;;-0.08;92.10
73941;BME280;62294;48.554;10.202;2022-11-06T02:07:02;96497.34;;;-0.26;92.27
73941;BME280;62294;48.554;10.202;2022-11-06T02:09:31;96506.72;;;-0.43;93.16
73941;BME280;62294;48.554;10.202;2022-11-06T02:17:28;96490.59;;;-0.29;93.48
73941;BME280;62294;48.554;10.202;2022-11-06T02:20:18;96492.53;;;-0.21;93.26
73941;BME280;62294;48.554;10.202;2022-11-06T02:26:30;96482.28;;;-0.05;92.17
73941;BME280;62294;48.554;10.202;2022-11-06T02:28:57;96485.03;;;-0.07;92.47
73941;BME280;62294;48.554;10.202;2022-11-06T02:31:29;96492.78;;;-0.15;92.26
73941;BME280;62294;48.554;10.202;2022-11-06T02:34:01;96491.53;;;-0.20;93.24
73941;BME280;62294;48.554;10.202;2022-11-06T02:36:33;96485.59;;;-0.13;93.04
73941;BME280;62294;48.554;10.202;2022-11-06T02:39:03;96486.09;;;0.00;93.35
73941;BME280;62294;48.554;10.202;2022-11-06T02:41:34;96486.22;;;0.09;92.80
73941;BME280;62294;48.554;10.202;2022-11-06T02:44:05;96488.03;;;-0.02;92.54
73941;BME280;62294;48.554;10.202;2022-11-06T02:46:39;96490.31;;;-0.16;92.60
73941;BME280;62294;48.554;10.202;2022-11-06T02:49:37;96488.06;;;-0.11;92.79
73941;BME280;62294;48.554;10.202;2022-11-06T02:52:12;96486.19;;;-0.19;93.29
73941;BME280;62294;48.554;10.202;2022-11-06T02:54:44;96490.25;;;-0.07;93.25
73941;BME280;62294;48.554;10.202;2022-11-06T02:57:13;96489.38;;;0.03;93.45
73941;BME280;62294;48.554;10.202;2022-11-06T02:59:49;96485.81;;;0.04;93.27
73941;BME280;62294;48.554;10.202;2022-11-06T03:02:22;96489.69;;;-0.01;93.14
73941;BME280;62294;48.554;10.202;2022-11-06T03:04:58;96483.88;;;0.06;93.53
73941;BME280;62294;48.554;10.202;2022-11-06T03:07:39;96480.41;;;0.15;93.14
73941;BME280;62294;48.554;10.202;2022-11-06T03:10:09;96478.91;;;0.12;92.54
73941;BME280;62294;48.554;10.202;2022-11-06T03:12:48;96481.91;;;0.17;93.10
73941;BME280;62294;48.554;10.202;2022-11-06T03:15:37;96471.69;;;0.24;92.72
73941;BME280;62294;48.554;10.202;2022-11-06T03:18:10;96467.53;;;0.31;92.96
73941;BME280;62294;48.554;10.202;2022-11-06T03:20:42;96467.25;;;0.34;92.65
73941;BME280;62294;48.554;10.202;2022-11-06T03:23:37;96466.19;;;-0.01;93.60
73941;BME280;62294;48.554;10.202;2022-11-06T03:26:23;96462.19;;;-0.05;94.74
73941;BME280;62294;48.554;10.202;2022-11-06T03:28:55;96461.03;;;0.08;94.46
73941;BME280;62294;48.554;10.202;2022-11-06T03:31:30;96464.84;;;0.23;94.58
73941;BME280;62294;48.554;10.202;2022-11-06T03:34:03;96474.44;;;0.32;94.25
73941;BME280;62294;48.554;10.202;2022-11-06T03:36:39;96468.31;;;0.41;93.71
73941;BME280;62294;48.554;10.202;2022-11-06T03:39:24;96462.50;;;0.47;94.62
73941;BME280;62294;48.554;10.202;2022-11-06T03:41:58;96453.25;;;0.70;94.47
73941;BME280;62294;48.554;10.202;2022-11-06T03:44:27;96461.09;;;0.70;92.98
73941;BME280;62294;48.554;10.202;2022-11-06T03:47:53;96452.81;;;0.75;93.68
73941;BME280;62294;48.554;10.202;2022-11-06T03:50:09;96450.41;;;0.81;92.76
73941;BME280;62294;48.554;10.202;2022-11-06T03:52:40;96437.03;;;0.84;92.83
73941;BME280;62294;48.554;10.202;2022-11-06T03:55:14;96439.66;;;0.84;93.74
73941;BME280;62294;48.554;10.202;2022-11-06T03:57:55;96434.56;;;0.65;94.05
73941;BME280;62294;48.554;10.202;2022-11-06T04:00:23;96434.56;;;0.65;94.74
73941;BME280;62294;48.554;10.202;2022-11-06T04:02:54;96433.28;;;0.69;94.99
73941;BME280;62294;48.554;10.202;2022-11-06T04:05:34;96439.03;;;0.55;95.14
73941;BME280;62294;48.554;10.202;2022-11-06T04:08:04;96428.00;;;0.61;95.79
73941;BME280;62294;48.554;10.202;2022-11-06T04:10:54;96430.59;;;0.61;95.21
73941;BME280;62294;48.554;10.202;2022-11-06T04:13:42;96425.00;;;0.56;95.91
73941;BME280;62294;48.554;10.202;2022-11-06T04:16:35;96418.41;;;0.52;96.82
73941;BME280;62294;48.554;10.202;2022-11-06T04:19:15;96423.28;;;0.47;96.50
73941;BME280;62294;48.554;10.202;2022-11-06T04:28:23;96406.19;;;0.52;98.23
73941;BME280;62294;48.554;10.202;2022-11-06T04:31:04;96406.84;;;0.54;97.36
73941;BME280;62294;48.554;10.202;2022-11-06T04:33:57;96421.72;;;0.54;97.96
73941;BME280;62294;48.554;10.202;2022-11-06T04:36:39;96408.34;;;0.57;98.28
73941;BME280;62294;48.554;10.202;2022-11-06T04:39:22;96399.06;;;0.62;97.62
73941;BME280;62294;48.554;10.202;2022-11-06T04:42:27;96416.63;;;0.70;98.19
73941;BME280;62294;48.554;10.202;2022-11-06T04:44:58;96395.94;;;0.59;97.01
73941;BME280;62294;48.554;10.202;2022-11-06T04:47:27;96402.72;;;0.52;98.06
73941;BME280;62294;48.554;10.202;2022-11-06T04:49:57;96402.13;;;0.58;96.79
73941;BME280;62294;48.554;10.202;2022-11-06T04:52:26;96405.03;;;0.55;97.14
73941;BME280;62294;48.554;10.202;2022-11-06T04:54:54;96397.78;;;0.49;97.39
73941;BME280;62294;48.554;10.202;2022-11-06T04:57:22;96402.56;;;0.36;97.96
73941;BME280;62294;48.554;10.202;2022-11-06T04:59:48;96391.06;;;0.64;98.75
73941;BME280;62294;48.554;10.202;2022-11-06T05:02:15;96390.25;;;0.81;97.82
73941;BME280;62294;48.554;10.202;2022-11-06T05:04:42;96389.19;;;0.92;96.16
73941;BME280;62294;48.554;10.202;2022-11-06T05:07:12;96388.13;;;1.02;95.50
73941;BME280;62294;48.554;10.202;2022-11-06T05:09:39;96370.53;;;1.12;95.76
73941;BME280;62294;48.554;10.202;2022-11-06T05:12:06;96371.56;;;1.19;95.03
73941;BME280;62294;48.554;10.202;2022-11-06T05:14:32;96377.16;;;1.24;94.70
73941;BME280;62294;48.554;10.202;2022-11-06T05:16:59;96376.78;;;1.19;93.83
73941;BME280;62294;48.554;10.202;2022-11-06T05:19:25;96377.56;;;1.12;93.84
73941;BME280;62294;48.554;10.202;2022-11-06T05:21:52;96368.81;;;1.03;94.38
73941;BME280;62294;48.554;10.202;2022-11-06T05:24:37;96353.41;;;1.18;94.95
73941;BME280;62294;48.554;10.202;2022-11-06T05:27:03;96357.19;;;0.98;94.36
73941;BME280;62294;48.554;10.202;2022-11-06T05:29:30;96348.56;;;1.05;94.55
73941;BME280;62294;48.554;10.202;2022-11-06T05:31:56;96344.50;;;1.11;94.47
73941;BME280;62294;48.554;10.202;2022-11-06T05:34:23;96350.56;;;1.11;94.69
73941;BME280;62294;48.554;10.202;2022-11-06T05:36:49;96356.47;;;1.13;94.65
73941;BME280;62294;48.554;10.202;2022-11-06T05:39:16;96348.38;;;0.81;95.46
73941;BME280;62294;48.554;10.202;2022-11-06T05:41:42;96349.66;;;0.77;96.05
73941;BME280;62294;48.554;10.202;2022-11-06T05:44:09;96350.72;;;1.10;94.79
73941;BME280;62294;48.554;10.202;2022-11-06T05:46:36;96342.50;;;1.30;93.90
73941;BME280;62294;48.554;10.202;2022-11-06T05:49:17;96344.97;;;1.32;93.96
73941;BME280;62294;48.554;10.202;2022-11-06T05:51:44;96343.75;;;1.18;94.13
73941;BME280;62294;48.554;10.202;2022-11-06T05:54:11;96338.38;;;1.28;94.42
73941;BME280;62294;48.554;10.202;2022-11-06T05:56:37;96340.53;;;0.81;94.79
73941;BME280;62294;48.554;10.202;2022-11-06T05:59:04;96360.06;;;0.51;96.85
73941;BME280;62294;48.554;10.202;2022-11-06T06:01:30;96354.16;;;0.49;96.76
73941;BME280;62294;48.554;10.202;2022-11-06T06:03:57;96367.91;;;0.51;96.88
73941;BME280;62294;48.554;10.202;2022-11-06T06:06:24;96377.69;;;0.49;97.19
73941;BME280;62294;48.554;10.202;2022-11-06T06:08:51;96380.59;;;0.46;97.41
73941;BME280;62294;48.554;10.202;2022-11-06T06:11:17;96375.88;;;0.32;97.58
73941;BME280;62294;48.554;10.202;2022-11-06T06:13:44;96372.97;;;0.18;98.71
73941;BME280;62294;48.554;10.202;2022-11-06T06:16:10;96373.81;;;0.36;97.94
73941;BME280;62294;48.554;10.202;2022-11-06T06:18:37;96380.75;;;0.80;98.19
73941;BME280;62294;48.554;10.202;2022-11-06T06:21:03;96392.19;;;0.79;96.40
73941;BME280;62294;48.554;10.202;2022-11-06T06:23:31;96387.69;;;0.89;95.70
73941;BME280;62294;48.554;10.202;2022-11-06T06:25:57;96396.06;;;0.93;96.04
73941;BME280;62294;48.554;10.202;2022-11-06T06:28:25;96395.53;;;0.89;95.67
73941;BME280;62294;48.554;10.202;2022-11-06T06:30:51;96398.97;;;0.90;96.99
73941;BME280;62294;48.554;10.202;2022-11-06T06:33:25;96398.34;;;1.13;95.41
73941;BME280;62294;48.554;10.202;2022-11-06T06:35:52;96378.03;;;1.33;95.98
73941;BME280;62294;48.554;10.202;2022-11-06T06:38:18;96371.03;;;1.41;95.41
73941;BME280;62294;48.554;10.202;2022-11-06T06:40:45;96371.66;;;1.35;95.25
73941;BME280;62294;48.554;10.202;2022-11-06T06:43:12;96370.03;;;1.34;95.17
73941;BME280;62294;48.554;10.202;2022-11-06T06:45:38;96366.38;;;1.27;94.91
73941;BME280;62294;48.554;10.202;2022-11-06T06:48:05;96367.16;;;1.20;94.32
73941;BME280;62294;48.554;10.202;2022-11-06T06:50:32;96381.38;;;1.17;95.14
73941;BME280;62294;48.554;10.202;2022-11-06T06:52:58;96369.44;;;1.49;94.99
73941;BME280;62294;48.554;10.202;2022-11-06T06:55:25;96359.31;;;1.28;95.00
73941;BME280;62294;48.554;10.202;2022-11-06T06:57:58;96366.94;;;1.13;95.23
73941;BME280;62294;48.554;10.202;2022-11-06T07:00:26;96393.78;;;1.15;94.51
73941;BME280;62294;48.554;10.202;2022-11-06T07:02:53;96393.59;;;1.34;95.02
73941;BME280;62294;48.554;10.202;2022-11-06T07:05:20;96392.50;;;1.45;94.41
73941;BME280;62294;48.554;10.202;2022-11-06T07:07:46;96390.56;;;1.47;94.68
73941;BME280;62294;48.554;10.202;2022-11-06T07:10:14;96384.56;;;1.55;93.82
73941;BME280;62294;48.554;10.202;2022-11-06T07:12:41;96386.25;;;1.64;93.66
73941;BME280;62294;48.554;10.202;2022-11-06T07:15:07;96395.06;;;1.63;93.38
73941;BME280;62294;48.554;10.202;2022-11-06T07:17:34;96395.72;;;1.65;93.68
73941;BME280;62294;48.554;10.202;2022-11-06T07:20:01;96390.81;;;1.62;92.85
73941;BME280;62294;48.554;10.202;2022-11-06T07:22:28;96393.72;;;1.59;93.54
73941;BME280;62294;48.554;10.202;2022-11-06T07:25:03;96400.00;;;1.66;94.08
73941;BME280;62294;48.554;10.202;2022-11-06T07:27:30;96383.34;;;1.75;93.15
73941;BME280;62294;48.554;10.202;2022-11-06T07:29:57;96382.81;;;1.71;93.95
73941;BME280;62294;48.554;10.202;2022-11-06T07:32:25;96390.25;;;1.84;93.46
73941;BME280;62294;48.554;10.202;2022-11-06T07:34:51;96400.09;;;1.82;93.43
73941;BME280;62294;48.554;10.202;2022-11-06T07:37:18;96389.63;;;1.90;93.13
73941;BME280;62294;48.554;10.202;2022-11-06T07:39:45;96390.09;;;1.85;93.46
73941;BME280;62294;48.554;10.202;2022-11-06T07:42:11;96375.41;;;1.59;92.91
73941;BME280;62294;48.554;10.202;2022-11-06T07:44:38;96373.50;;;1.69;93.21
73941;BME280;62294;48.554;10.202;2022-11-06T07:47:04;96366.91;;;1.65;93.25
73941;BME280;62294;48.554;10.202;2022-11-06T07:49:31;96350.00;;;1.93;94.22
73941;BME280;62294;48.554;10.202;2022-11-06T07:51:57;96350.06;;;2.09;93.90
73941;BME280;62294;48.554;10.202;2022-11-06T07:54:24;96344.13;;;1.99;92.38
73941;BME280;62294;48.554;10.202;2022-11-06T07:56:50;96336.91;;;2.01;93.38
73941;BME280;62294;48.554;10.202;2022-11-06T07:59:17;96333.53;;;2.17;92.79
73941;BME280;62294;48.554;10.202;2022-11-06T08:01:43;96329.56;;;2.12;93.00
73941;BME280;62294;48.554;10.202;2022-11-06T08:04:10;96333.06;;;2.21;93.54
73941;BME280;62294;48.554;10.202;2022-11-06T08:06:37;96324.84;;;2.24;92.03
73941;BME280;62294;48.554;10.202;2022-11-06T08:09:05;96318.31;;;2.28;92.55
73941;BME280;62294;48.554;10.202;2022-11-06T08:11:33;96303.94;;;2.64;92.60
73941;BME280;62294;48.554;10.202;2022-11-06T08:14:00;96314.75;;;2.77;92.71
73941;BME280;62294;48.554;10.202;2022-11-06T08:16:26;96312.28;;;2.76;91.55
73941;BME280;62294;48.554;10.202;2022-11-06T08:18:54;96306.19;;;2.67;92.48
73941;BME280;62294;48.554;10.202;2022-11-06T08:21:20;96301.63;;;2.77;92.38
73941;BME280;62294;48.554;10.202;2022-11-06T08:23:47;96294.72;;;2.84;91.60
73941;BME280;62294;48.554;10.202;2022-11-06T08:26:14;96284.56;;;2.81;90.88
73941;BME280;62294;48.554;10.202;2022-11-06T08:28:40;96280.59;;;2.53;91.55
73941;BME280;62294;48.554;10.202;2022-11-06T08:31:08;96270.91;;;3.10;92.53
73941;BME280;62294;48.554;10.202;2022-11-06T08:33:36;96269.03;;;3.27;91.97
73941;BME280;62294;48.554;10.202;2022-11-06T08:36:04;96259.75;;;3.47;90.85
73941;BME280;62294;48.554;10.202;2022-11-06T08:38:31;96254.69;;;3.84;91.39
73941;BME280;62294;48.554;10.202;2022-11-06T08:41:03;96256.16;;;3.48;89.69
73941;BME280;62294;48.554;10.202;2022-11-06T08:43:30;96255.25;;;3.33;90.72
73941;BME280;62294;48.554;10.202;2022-11-06T08:45:58;96254.50;;;3.55;90.16
73941;BME280;62294;48.554;10.202;2022-11-06T08:48:24;96260.31;;;4.04;91.33
73941;BME280;62294;48.554;10.202;2022-11-06T08:50:50;96254.88;;;3.36;88.61
73941;BME280;62294;48.554;10.202;2022-11-06T08:53:17;96245.13;;;3.14;90.22
73941;BME280;62294;48.554;10.202;2022-11-06T08:55:44;96231.28;;;3.67;90.30
73941;BME280;62294;48.554;10.202;2022-11-06T08:58:10;96227.75;;;3.82;89.86
73941;BME280;62294;48.554;10.202;2022-11-06T09:00:37;96227.50;;;3.69;89.39
73941;BME280;62294;48.554;10.202;2022-11-06T09:03:06;96224.00;;;3.99;90.10
73941;BME280;62294;48.554;10.202;2022-11-06T09:05:38;96218.91;;;4.06;89.56
73941;BME280;62294;48.554;10.202;2022-11-06T09:08:05;96211.13;;;4.12;89.23
73941;BME280;62294;48.554;10.202;2022-11-06T09:10:31;96203.34;;;4.42;89.39
73941;BME280;62294;48.554;10.202;2022-11-06T09:12:58;96196.22;;;4.27;89.78
73941;BME280;62294;48.554;10.202;2022-11-06T09:15:25;96190.38;;;4.40;88.53
73941;BME280;62294;48.554;10.202;2022-11-06T09:17:52;96191.19;;;3.95;87.12
73941;BME280;62294;48.554;10.202;2022-11-06T09:20:20;96190.09;;;4.50;87.31
73941;BME280;62294;48.554;10.202;2022-11-06T09:22:47;96185.31;;;4.53;89.44
73941;BME280;62294;48.554;10.202;2022-11-06T09:25:14;96173.34;;;4.65;86.64
73941;BME280;62294;48.554;10.202;2022-11-06T09:27:44;96167.72;;;4.68;88.26
73941;BME280;62294;48.554;10.202;2022-11-06T09:30:13;96160.28;;;4.86;88.40
73941;BME280;62294;48.554;10.202;2022-11-06T09:32:50;96159.28;;;5.02;87.44
73941;BME280;62294;48.554;10.202;2022-11-06T09:35:18;96161.09;;;4.87;86.76
73941;BME280;62294;48.554;10.202;2022-11-06T09:37:45;96167.81;;;4.75;87.75
73941;BME280;62294;48.554;10.202;2022-11-06T09:40:19;96173.72;;;4.77;89.05
73941;BME280;62294;48.554;10.202;2022-11-06T09:45:30;96159.66;;;4.70;87.80
73941;BME280;62294;48.554;10.202;2022-11-06T09:50:41;96164.97;;;4.47;88.68
73941;BME280;62294;48.554;10.202;2022-11-06T09:53:16;96160.09;;;4.73;88.21
73941;BME280;62294;48.554;10.202;2022-11-06T09:55:47;96146.50;;;4.99;87.96
73941;BME280;62294;48.554;10.202;2022-11-06T09:58:19;96149.47;;;5.25;87.71
73941;BME280;62294;48.554;10.202;2022-11-06T10:00:49;96148.78;;;5.52;85.65
73941;BME280;62294;48.554;10.202;2022-11-06T10:03:22;96146.91;;;5.46;86.42
73941;BME280;62294;48.554;10.202;2022-11-06T10:05:52;96157.38;;;5.75;85.77
73941;BME280;62294;48.554;10.202;2022-11-06T10:08:27;96149.22;;;5.20;86.23
73941;BME280;62294;48.554;10.202;2022-11-06T10:11:27;96152.91;;;5.40;87.40
73941;BME280;62294;48.554;10.202;2022-11-06T10:19:27;96149.13;;;4.70;85.59
73941;BME280;62294;48.554;10.202;2022-11-06T10:24:51;96137.50;;;5.08;87.61
73941;BME280;62294;48.554;10.202;2022-11-06T10:27:35;96143.06;;;5.63;85.29
73941;BME280;62294;48.554;10.202;2022-11-06T10:38:13;96117.28;;;5.44;85.40
73941;BME280;62294;48.554;10.202;2022-11-06T10:40:45;96110.69;;;5.04;85.91
73941;BME280;62294;48.554;10.202;2022-11-06T10:43:41;96112.72;;;4.88;88.10
73941;BME280;62294;48.554;10.202;2022-11-06T10:46:27;96111.81;;;5.46;86.51
73941;BME280;62294;48.554;10.202;2022-11-06T10:49:05;96113.00;;;5.79;85.80
73941;BME280;62294;48.554;10.202;2022-11-06T10:52:08;96098.56;;;5.96;84.51
73941;BME280;62294;48.554;10.202;2022-11-06T10:54:54;96120.09;;;5.79;84.46
73941;BME280;62294;48.554;10.202;2022-11-06T10:57:45;96137.81;;;5.34;85.23
73941;BME280;62294;48.554;10.202;2022-11-06T11:00:14;96155.84;;;4.87;87.19
73941;BME280;62294;48.554;10.202;2022-11-06T11:02:48;96158.00;;;5.27;87.13
73941;BME280;62294;48.554;10.202;2022-11-06T11:05:19;96150.28;;;5.76;86.85
73941;BME280;62294;48.554;10.202;2022-11-06T11:07:48;96151.66;;;6.08;85.04
73941;BME280;62294;48.554;10.202;2022-11-06T11:10:27;96137.31;;;5.96;85.45
73941;BME280;62294;48.554;10.202;2022-11-06T11:12:56;96119.63;;;6.11;84.71
73941;BME280;62294;48.554;10.202;2022-11-06T11:15:30;96112.28;;;6.06;83.22
73941;BME280;62294;48.554;10.202;2022-11-06T11:20:39;96100.53;;;6.09;82.88
73941;BME280;62294;48.554;10.202;2022-11-06T11:23:17;96087.09;;;6.59;82.82
73941;BME280;62294;48.554;10.202;2022-11-06T11:25:52;96100.91;;;6.89;82.15
73941;BME280;62294;48.554;10.202;2022-11-06T11:28:24;96109.13;;;6.45;83.05
73941;BME280;62294;48.554;10.202;2022-11-06T11:31:14;96103.53;;;6.06;83.03
73941;BME280;62294;48.554;10.202;2022-11-06T11:33:46;96102.75;;;6.12;84.17
73941;BME280;62294;48.554;10.202;2022-11-06T11:36:14;96108.06;;;5.91;83.81
73941;BME280;62294;48.554;10.202;2022-11-06T11:38:41;96093.47;;;6.16;83.98
73941;BME280;62294;48.554;10.202;2022-11-06T11:41:13;96070.28;;;6.39;83.98
73941;BME280;62294;48.554;10.202;2022-11-06T11:43:40;96049.94;;;6.33;82.31
73941;BME280;62294;48.554;10.202;2022-11-06T11:53:47;96022.69;;;6.26;81.84
73941;BME280;62294;48.554;10.202;2022-11-06T11:56:16;96013.34;;;6.58;83.07
73941;BME280;62294;48.554;10.202;2022-11-06T11:59:03;96005.91;;;7.28;81.53
73941;BME280;62294;48.554;10.202;2022-11-06T12:01:48;95997.81;;;7.43;80.31
73941;BME280;62294;48.554;10.202;2022-11-06T12:04:20;95992.53;;;7.56;79.59
73941;BME280;62294;48.554;10.202;2022-11-06T12:06:54;95993.59;;;7.74;79.15
73941;BME280;62294;48.554;10.202;2022-11-06T12:09:22;95997.47;;;6.98;80.47
73941;BME280;62294;48.554;10.202;2022-11-06T12:11:52;95992.13;;;7.52;81.37
73941;BME280;62294;48.554;10.202;2022-11-06T12:16:49;95974.84;;;7.37;77.67
73941;BME280;62294;48.554;10.202;2022-11-06T12:19:18;95965.41;;;7.21;79.29
73941;BME280;62294;48.554;10.202;2022-11-06T12:21:50;95963.63;;;7.35;80.45
73941;BME280;62294;48.554;10.202;2022-11-06T12:24:22;95956.56;;;7.55;79.13
73941;BME280;62294;48.554;10.202;2022-11-06T12:27:16;95942.72;;;7.66;78.64
73941;BME280;62294;48.554;10.202;2022-11-06T12:29:50;95936.81;;;7.83;79.00
73941;BME280;62294;48.554;10.202;2022-11-06T12:32:35;95933.13;;;7.71;78.17
73941;BME280;62294;48.554;10.202;2022-11-06T12:38:23;95904.84;;;7.85;78.52
73941;BME280;62294;48.554;10.202;2022-11-06T12:40:57;95898.75;;;7.84;78.53
73941;BME280;62294;48.554;10.202;2022-11-06T12:43:32;95899.94;;;7.16;80.26
73941;BME280;62294;48.554;10.202;2022-11-06T12:54:27;95887.13;;;8.05;77.69
73941;BME280;62294;48.554;10.202;2022-11-06T13:00:23;95888.59;;;7.75;77.06
73941;BME280;62294;48.554;10.202;2022-11-06T13:03:21;95890.81;;;7.91;76.65
73941;BME280;62294;48.554;10.202;2022-11-06T13:06:15;95900.19;;;7.41;79.68
73941;BME280;62294;48.554;10.202;2022-11-06T13:09:00;95895.31;;;7.77;78.00
73941;BME280;62294;48.554;10.202;2022-11-06T13:11:47;95880.41;;;7.83;76.94
73941;BME280;62294;48.554;10.202;2022-11-06T13:17:16;95871.41;;;8.10;77.45
73941;BME280;62294;48.554;10.202;2022-11-06T13:27:51;95879.34;;;8.10;78.82
73941;BME280;62294;48.554;10.202;2022-11-06T13:30:22;95882.75;;;8.43;77.52
73941;BME280;62294;48.554;10.202;2022-11-06T13:35:26;95875.94;;;7.90;78.91
73941;BME280;62294;48.554;10.202;2022-11-06T13:37:53;95864.25;;;8.17;78.27
73941;BME280;62294;48.554;10.202;2022-11-06T13:42:56;95864.25;;;8.37;77.29
73941;BME280;62294;48.554;10.202;2022-11-06T13:45:25;95855.81;;;8.46;77.05
73941;BME280;62294;48.554;10.202;2022-11-06T13:50:57;95837.97;;;8.29;77.48
73941;BME280;62294;48.554;10.202;2022-11-06T13:53:35;95837.81;;;8.68;77.20
73941;BME280;62294;48.554;10.202;2022-11-06T13:59:11;95845.56;;;8.63;77.43
73941;BME280;62294;48.554;10.202;2022-11-06T14:04:45;95833.75;;;8.08;79.03
73941;BME280;62294;48.554;10.202;2022-11-06T14:07:19;95832.94;;;8.01;79.11
73941;BME280;62294;48.554;10.202;2022-11-06T14:09:47;95825.19;;;8.06;79.45
73941;BME280;62294;48.554;10.202;2022-11-06T14:12:19;95821.28;;;8.28;79.18
73941;BME280;62294;48.554;10.202;2022-11-06T14:14:47;95826.38;;;8.23;78.98
73941;BME280;62294;48.554;10.202;2022-11-06T14:24:50;95816.91;;;7.96;79.70
73941;BME280;62294;48.554;10.202;2022-11-06T14:32:38;95833.16;;;8.06;78.74
73941;BME280;62294;48.554;10.202;2022-11-06T14:38:30;95816.09;;;7.96;79.59
73941;BME280;62294;48.554;10.202;2022-11-06T14:40:58;95817.13;;;7.81;79.63
73941;BME280;62294;48.554;10.202;2022-11-06T14:43:32;95817.97;;;7.69;80.31
73941;BME280;62294;48.554;10.202;2022-11-06T14:46:18;95825.09;;;7.55;80.75
73941;BME280;62294;48.554;10.202;2022-11-06T14:48:50;95806.78;;;7.60;80.80
73941;BME280;62294;48.554;10.202;2022-11-06T14:51:27;95810.22;;;7.74;80.41
73941;BME280;62294;48.554;10.202;2022-11-06T14:53:57;95812.31;;;7.52;80.94
73941;BME280;62294;48.554;10.202;2022-11-06T14:56:28;95814.97;;;7.46;81.29
73941;BME280;62294;48.554;10.202;2022-11-06T14:58:59;95815.78;;;7.40;81.70
73941;BME280;62294;48.554;10.202;2022-11-06T15:01:34;95817.81;;;7.38;82.29
73941;BME280;62294;48.554;10.202;2022-11-06T15:04:13;95827.19;;;7.34;82.03
73941;BME280;62294;48.554;10.202;2022-11-06T15:06:45;95823.13;;;7.25;82.23
73941;BME280;62294;48.554;10.202;2022-11-06T15:12:00;95829.41;;;7.17;82.89